Time,TemperatureF,DewpointF,PressureIn,WindDirection,WindDirectionDegrees,WindSpeedMPH,WindSpeedGustMPH,Humidity,HourlyPrecipIn,Conditions,Clouds,dailyrainin,SolarRadiationWatts/m^2,SoftwareType,DateUTC
2013-03-02 00:01:00,56.0,31.0,30.30,NNW,328,-999.0,0.0,38,-99.99,,,-99.99,0.000000,,2013-03-02 07:01:00,
2013-03-02 00:11:00,56.0,31.0,30.30,NNW,328,-999.0,0.0,38,-99.99,,,-99.99,0.000000,,2013-03-02 07:11:00,
2013-03-02 00:21:00,55.0,31.0,30.30,NNW,328,-999.0,0.0,39,-99.99,,,-99.99,0.000000,,2013-03-02 07:21:00,
2013-03-02 00:32:00,54.0,31.0,30.30,NNW,328,-999.0,0.0,41,-99.99,,,-99.99,0.000000,,2013-03-02 07:32:00,
2013-03-02 00:41:00,54.0,31.0,30.30,NNW,328,-999.0,0.0,41,-99.99,,,-99.99,0.000000,,2013-03-02 07:41:00,
2013-03-02 00:51:00,54.0,31.0,30.30,NNW,328,-999.0,0.0,41,-99.99,,,-99.99,0.000000,,2013-03-02 07:51:00,
2013-03-02 01:01:00,57.0,32.0,30.33,NNW,328,-999.0,0.0,38,-99.99,,,-99.99,0.000000,,2013-03-02 08:01:00,
2013-03-02 01:11:00,57.0,32.0,30.33,NNW,328,-999.0,0.0,38,-99.99,,,-99.99,0.000000,,2013-03-02 08:11:00,
2013-03-02 01:21:00,57.0,31.0,30.33,East,100,-999.0,0.0,37,-99.99,,,-99.99,0.000000,,2013-03-02 08:21:00,
2013-03-02 01:32:00,55.0,31.0,30.33,East,100,-999.0,0.0,39,-99.99,,,-99.99,0.000000,,2013-03-02 08:32:00,
2013-03-02 01:42:00,55.0,31.0,30.33,East,100,-999.0,0.0,39,-99.99,,,-99.99,0.000000,,2013-03-02 08:42:00,
2013-03-02 01:52:00,55.0,30.0,30.33,East,100,-999.0,0.0,38,-99.99,,,-99.99,0.000000,,2013-03-02 08:52:00,
2013-03-02 02:01:00,56.0,30.0,30.30,NNE,20,-999.0,0.0,37,-99.99,,,-99.99,0.000000,,2013-03-02 09:01:00,
2013-03-02 02:11:00,56.0,30.0,30.30,NNE,20,-999.0,0.0,37,-99.99,,,-99.99,0.000000,,2013-03-02 09:11:00,
2013-03-02 02:21:00,56.0,30.0,30.30,NNE,18,-999.0,0.0,37,-99.99,,,-99.99,0.000000,,2013-03-02 09:21:00,
2013-03-02 02:31:00,55.0,30.0,30.33,NNE,20,-999.0,0.0,38,-99.99,,,-99.99,0.000000,,2013-03-02 09:31:00,
2013-03-02 02:42:00,55.0,30.0,30.33,NNE,20,-999.0,0.0,38,-99.99,,,-99.99,0.000000,,2013-03-02 09:42:00,
2013-03-02 02:51:00,55.0,31.0,30.33,NNE,20,-999.0,0.0,39,-99.99,,,-99.99,0.000000,,2013-03-02 09:51:00,
2013-03-02 03:01:00,53.0,31.0,30.33,NNE,20,-999.0,0.0,42,-99.99,,,-99.99,0.000000,,2013-03-02 10:01:00,
2013-03-02 03:14:00,53.0,31.0,30.33,NNE,20,-999.0,0.0,42,-99.99,,,-99.99,0.000000,,2013-03-02 10:14:00,
2013-03-02 03:21:00,53.0,31.0,30.33,SSE,149,-999.0,0.0,42,-99.99,,,-99.99,0.000000,,2013-03-02 10:21:00,
2013-03-02 03:31:00,53.0,31.0,30.33,SSE,149,-999.0,0.0,42,-99.99,,,-99.99,0.000000,,2013-03-02 10:31:00,
2013-03-02 03:41:00,53.0,31.0,30.33,SSE,149,-999.0,0.0,42,-99.99,,,-99.99,0.000000,,2013-03-02 10:41:00,
2013-03-02 03:51:00,52.0,31.0,30.33,SSE,149,-999.0,0.0,45,-99.99,,,-99.99,0.000000,,2013-03-02 10:51:00,
2013-03-02 04:01:00,51.0,31.0,30.33,SSE,149,-999.0,0.0,46,-99.99,,,-99.99,0.000000,,2013-03-02 11:01:00,
2013-03-02 04:11:00,51.0,31.0,30.33,SSE,149,-999.0,0.0,46,-99.99,,,-99.99,0.000000,,2013-03-02 11:11:00,
2013-03-02 04:21:00,51.0,31.0,30.33,NE,56,-999.0,0.0,46,-99.99,,,-99.99,0.000000,,2013-03-02 11:21:00,
2013-03-02 04:31:00,50.0,31.0,30.33,NE,56,-999.0,0.0,47,-99.99,,,-99.99,0.000000,,2013-03-02 11:31:00,
2013-03-02 04:41:00,50.0,31.0,30.33,NE,56,-999.0,0.0,47,-99.99,,,-99.99,0.000000,,2013-03-02 11:41:00,
2013-03-02 04:52:00,49.0,31.0,30.33,NE,55,-999.0,0.0,50,-99.99,,,-99.99,0.000000,,2013-03-02 11:52:00,
2013-03-02 05:02:00,49.0,32.0,30.33,NE,55,-999.0,0.0,52,-99.99,,,-99.99,0.000000,,2013-03-02 12:02:00,
2013-03-02 05:11:00,49.0,32.0,30.33,NE,55,-999.0,0.0,52,-99.99,,,-99.99,0.000000,,2013-03-02 12:11:00,
2013-03-02 05:21:00,50.0,32.0,30.33,ESE,108,-999.0,0.0,49,-99.99,,,-99.99,0.000000,,2013-03-02 12:21:00,
2013-03-02 05:32:00,48.0,32.0,30.33,ESE,108,-999.0,0.0,53,-99.99,,,-99.99,0.000000,,2013-03-02 12:32:00,
2013-03-02 05:43:00,48.0,32.0,30.33,ESE,108,-999.0,0.0,53,-99.99,,,-99.99,0.000000,,2013-03-02 12:43:00,
2013-03-02 05:53:00,49.0,32.0,30.33,ESE,108,-999.0,0.0,52,-99.99,,,-99.99,0.000000,,2013-03-02 12:53:00,
2013-03-02 06:01:00,48.0,32.0,30.33,ESE,108,-999.0,0.0,54,-99.99,,,-99.99,0.000000,,2013-03-02 13:01:00,
2013-03-02 06:11:00,48.0,32.0,30.33,ESE,108,-999.0,0.0,54,-99.99,,,-99.99,0.000000,,2013-03-02 13:11:00,
2013-03-02 06:21:00,47.0,32.0,30.33,ESE,108,-999.0,0.0,56,-99.99,,,-99.99,0.000000,,2013-03-02 13:21:00,
2013-03-02 06:31:00,48.0,32.0,30.33,ESE,108,-999.0,0.0,53,-99.99,,,-99.99,0.000000,,2013-03-02 13:31:00,
2013-03-02 06:41:00,48.0,32.0,30.33,ESE,108,-999.0,0.0,53,-99.99,,,-99.99,0.000000,,2013-03-02 13:41:00,
2013-03-02 06:52:00,47.0,32.0,30.33,ESE,108,-999.0,0.0,55,-99.99,,,-99.99,0.000000,,2013-03-02 13:52:00,
2013-03-02 07:01:00,48.0,33.0,30.33,ESE,108,-999.0,0.0,55,-99.99,,,-99.99,0.000000,,2013-03-02 14:01:00,
2013-03-02 07:11:00,48.0,33.0,30.33,ESE,108,-999.0,0.0,55,-99.99,,,-99.99,0.000000,,2013-03-02 14:11:00,
2013-03-02 07:21:00,46.0,32.0,30.33,ESE,108,-999.0,0.0,58,-99.99,,,-99.99,0.000000,,2013-03-02 14:21:00,
2013-03-02 07:32:00,46.0,32.0,30.33,ESE,108,-999.0,0.0,58,-99.99,,,-99.99,0.000000,,2013-03-02 14:32:00,
2013-03-02 07:42:00,46.0,32.0,30.33,ESE,108,-999.0,0.0,58,-99.99,,,-99.99,0.000000,,2013-03-02 14:42:00,
2013-03-02 07:52:00,50.0,33.0,30.33,ESE,108,-999.0,0.0,52,-99.99,,,-99.99,0.000000,,2013-03-02 14:52:00,
2013-03-02 08:01:00,52.0,32.0,30.36,ESE,108,-999.0,0.0,46,-99.99,,,-99.99,49.000000,,2013-03-02 15:01:00,
2013-03-02 08:11:00,52.0,32.0,30.36,ESE,108,-999.0,0.0,46,-99.99,,,-99.99,49.000000,,2013-03-02 15:11:00,
2013-03-02 08:21:00,55.0,33.0,30.36,ESE,108,-999.0,0.0,43,-99.99,,,-99.99,49.000000,,2013-03-02 15:21:00,
2013-03-02 08:31:00,58.0,33.0,30.36,ESE,108,-999.0,0.0,39,-99.99,,,-99.99,132.000000,,2013-03-02 15:31:00,
2013-03-02 08:41:00,58.0,33.0,30.36,ESE,108,-999.0,0.0,39,-99.99,,,-99.99,132.000000,,2013-03-02 15:41:00,
2013-03-02 08:51:00,60.0,33.0,30.36,ESE,110,-999.0,0.0,36,-99.99,,,-99.99,132.000000,,2013-03-02 15:51:00,
2013-03-02 09:01:00,60.0,32.0,30.36,ESE,107,-999.0,0.0,35,-99.99,,,-99.99,258.000000,,2013-03-02 16:01:00,
2013-03-02 09:11:00,60.0,32.0,30.36,ESE,107,-999.0,0.0,35,-99.99,,,-99.99,258.000000,,2013-03-02 16:11:00,
2013-03-02 09:21:00,62.0,32.0,30.36,ESE,103,-999.0,0.0,32,-99.99,,,-99.99,258.000000,,2013-03-02 16:21:00,
2013-03-02 09:31:00,62.0,32.0,30.36,ESE,117,-999.0,0.0,32,-99.99,,,-99.99,242.000000,,2013-03-02 16:31:00,
2013-03-02 09:41:00,62.0,32.0,30.36,ESE,117,-999.0,0.0,32,-99.99,,,-99.99,242.000000,,2013-03-02 16:41:00,
2013-03-02 09:51:00,65.0,33.0,30.36,ESE,117,-999.0,0.0,30,-99.99,,,-99.99,242.000000,,2013-03-02 16:51:00,
2013-03-02 10:01:00,65.0,32.0,30.36,ESE,117,-999.0,0.0,29,-99.99,,,-99.99,473.000000,,2013-03-02 17:01:00,
2013-03-02 10:11:00,65.0,32.0,30.36,ESE,117,-999.0,0.0,29,-99.99,,,-99.99,473.000000,,2013-03-02 17:11:00,
2013-03-02 10:21:00,68.0,31.0,30.36,ESE,117,-999.0,0.0,25,-99.99,,,-99.99,473.000000,,2013-03-02 17:21:00,
2013-03-02 10:31:00,69.0,33.0,30.36,South,173,-999.0,0.0,26,-99.99,,,-99.99,566.000000,,2013-03-02 17:31:00,
2013-03-02 10:41:00,69.0,33.0,30.36,South,173,-999.0,0.0,26,-99.99,,,-99.99,566.000000,,2013-03-02 17:41:00,
2013-03-02 10:52:00,69.0,32.0,30.36,SSE,158,-999.0,0.0,25,-99.99,,,-99.99,566.000000,,2013-03-02 17:52:00,
2013-03-02 11:01:00,71.0,32.0,30.36,SSE,166,-999.0,0.0,24,-99.99,,,-99.99,643.000000,,2013-03-02 18:01:00,
2013-03-02 11:11:00,71.0,32.0,30.36,SSE,166,-999.0,0.0,24,-99.99,,,-99.99,643.000000,,2013-03-02 18:11:00,
2013-03-02 11:21:00,72.0,31.0,30.36,SW,224,-999.0,0.0,22,-99.99,,,-99.99,643.000000,,2013-03-02 18:21:00,
2013-03-02 11:31:00,74.0,30.0,30.33,WSW,238,-999.0,0.0,20,-99.99,,,-99.99,714.000000,,2013-03-02 18:31:00,
2013-03-02 11:41:00,74.0,30.0,30.33,WSW,238,-999.0,0.0,20,-99.99,,,-99.99,714.000000,,2013-03-02 18:41:00,
2013-03-02 11:51:00,76.0,31.0,30.33,WNW,292,-999.0,0.0,19,-99.99,,,-99.99,714.000000,,2013-03-02 18:51:00,
2013-03-02 12:01:00,76.0,29.0,30.33,SSE,158,-999.0,0.0,18,-99.99,,,-99.99,764.000000,,2013-03-02 19:01:00,
2013-03-02 12:11:00,76.0,29.0,30.33,SSE,158,-999.0,0.0,18,-99.99,,,-99.99,764.000000,,2013-03-02 19:11:00,
2013-03-02 12:21:00,76.0,29.0,30.33,ESE,105,-999.0,0.0,18,-99.99,,,-99.99,764.000000,,2013-03-02 19:21:00,
2013-03-02 12:31:00,77.0,30.0,30.30,South,170,-999.0,0.0,18,-99.99,,,-99.99,791.000000,,2013-03-02 19:31:00,
2013-03-02 12:42:00,77.0,30.0,30.30,South,170,-999.0,0.0,18,-99.99,,,-99.99,791.000000,,2013-03-02 19:42:00,
2013-03-02 12:52:00,79.0,30.0,30.30,SE,141,-999.0,0.0,17,-99.99,,,-99.99,791.000000,,2013-03-02 19:52:00,
2013-03-02 13:01:00,78.0,30.0,30.30,SSE,163,-999.0,0.0,17,-99.99,,,-99.99,808.000000,,2013-03-02 20:01:00,
2013-03-02 13:11:00,78.0,30.0,30.30,SSE,163,-999.0,0.0,17,-99.99,,,-99.99,808.000000,,2013-03-02 20:11:00,
2013-03-02 13:21:00,79.0,29.0,30.30,SSE,149,-999.0,0.0,16,-99.99,,,-99.99,808.000000,,2013-03-02 20:21:00,
2013-03-02 13:32:00,81.0,31.0,30.30,North,0,-999.0,0.0,16,-99.99,,,-99.99,808.000000,,2013-03-02 20:32:00,
2013-03-02 13:41:00,81.0,31.0,30.30,North,0,-999.0,0.0,16,-99.99,,,-99.99,808.000000,,2013-03-02 20:41:00,
2013-03-02 13:52:00,81.0,29.0,30.30,West,269,-999.0,0.0,15,-99.99,,,-99.99,808.000000,,2013-03-02 20:52:00,
2013-03-02 14:02:00,81.0,29.0,30.27,NNW,336,-999.0,0.0,15,-99.99,,,-99.99,802.000000,,2013-03-02 21:02:00,
2013-03-02 14:11:00,81.0,29.0,30.27,NNW,336,-999.0,0.0,15,-99.99,,,-99.99,802.000000,,2013-03-02 21:11:00,
2013-03-02 14:21:00,82.0,26.0,30.27,SE,124,-999.0,0.0,13,-99.99,,,-99.99,802.000000,,2013-03-02 21:21:00,
2013-03-02 14:31:00,83.0,27.0,30.24,SSE,165,-999.0,0.0,13,-99.99,,,-99.99,775.000000,,2013-03-02 21:31:00,
2013-03-02 14:41:00,83.0,27.0,30.24,SSE,165,-999.0,0.0,13,-99.99,,,-99.99,775.000000,,2013-03-02 21:41:00,
2013-03-02 14:52:00,84.0,26.0,30.24,SW,219,-999.0,0.0,12,-99.99,,,-99.99,775.000000,,2013-03-02 21:52:00,
2013-03-02 15:01:00,83.0,27.0,30.24,WSW,257,-999.0,0.0,13,-99.99,,,-99.99,703.000000,,2013-03-02 22:01:00,
2013-03-02 15:11:00,83.0,27.0,30.24,WSW,257,-999.0,0.0,13,-99.99,,,-99.99,703.000000,,2013-03-02 22:11:00,
2013-03-02 15:21:00,84.0,26.0,30.24,SSE,159,-999.0,0.0,12,-99.99,,,-99.99,703.000000,,2013-03-02 22:21:00,
2013-03-02 15:32:00,86.0,27.0,30.24,South,170,-999.0,0.0,12,-99.99,,,-99.99,654.000000,,2013-03-02 22:32:00,
2013-03-02 15:42:00,86.0,27.0,30.24,South,170,-999.0,0.0,12,-99.99,,,-99.99,654.000000,,2013-03-02 22:42:00,
2013-03-02 15:51:00,84.0,28.0,30.24,North,359,-999.0,0.0,13,-99.99,,,-99.99,654.000000,,2013-03-02 22:51:00,
2013-03-02 16:01:00,84.0,26.0,30.21,SSW,194,-999.0,0.0,12,-99.99,,,-99.99,522.000000,,2013-03-02 23:01:00,
2013-03-02 16:11:00,84.0,26.0,30.21,SSW,194,-999.0,0.0,12,-99.99,,,-99.99,522.000000,,2013-03-02 23:11:00,
2013-03-02 16:21:00,84.0,24.0,30.21,South,174,-999.0,0.0,11,-99.99,,,-99.99,522.000000,,2013-03-02 23:21:00,
2013-03-02 16:32:00,84.0,24.0,30.21,SSW,204,-999.0,0.0,11,-99.99,,,-99.99,214.000000,,2013-03-02 23:32:00,
2013-03-02 16:41:00,84.0,24.0,30.21,SSW,204,-999.0,0.0,11,-99.99,,,-99.99,214.000000,,2013-03-02 23:41:00,
2013-03-02 16:52:00,86.0,25.0,30.21,South,169,-999.0,0.0,11,-99.99,,,-99.99,214.000000,,2013-03-02 23:52:00,
2013-03-02 17:02:00,85.0,27.0,30.21,South,191,-999.0,0.0,12,-99.99,,,-99.99,335.000000,,2013-03-03 00:02:00,
2013-03-02 17:11:00,85.0,27.0,30.21,South,191,-999.0,0.0,12,-99.99,,,-99.99,335.000000,,2013-03-03 00:11:00,
2013-03-02 17:22:00,83.0,25.0,30.21,WSW,256,-999.0,0.0,12,-99.99,,,-99.99,335.000000,,2013-03-03 00:22:00,
2013-03-02 17:31:00,83.0,27.0,30.21,SW,225,-999.0,0.0,13,-99.99,,,-99.99,170.000000,,2013-03-03 00:31:00,
2013-03-02 17:42:00,83.0,27.0,30.21,SW,225,-999.0,0.0,13,-99.99,,,-99.99,170.000000,,2013-03-03 00:42:00,
2013-03-02 17:52:00,81.0,26.0,30.21,West,263,-999.0,0.0,13,-99.99,,,-99.99,170.000000,,2013-03-03 00:52:00,
2013-03-02 18:01:00,81.0,24.0,30.21,NW,323,-999.0,0.0,12,-99.99,,,-99.99,115.000000,,2013-03-03 01:01:00,
2013-03-02 18:11:00,81.0,24.0,30.21,NW,323,-999.0,0.0,12,-99.99,,,-99.99,115.000000,,2013-03-03 01:11:00,
2013-03-02 18:21:00,82.0,24.0,30.21,NW,325,-999.0,0.0,12,-99.99,,,-99.99,115.000000,,2013-03-03 01:21:00,
2013-03-02 18:31:00,81.0,24.0,30.18,West,281,-999.0,0.0,12,-99.99,,,-99.99,11.000000,,2013-03-03 01:31:00,
2013-03-02 18:41:00,81.0,24.0,30.18,West,281,-999.0,0.0,12,-99.99,,,-99.99,11.000000,,2013-03-03 01:41:00,
2013-03-02 18:51:00,78.0,25.0,30.18,West,281,-999.0,0.0,14,-99.99,,,-99.99,11.000000,,2013-03-03 01:51:00,
2013-03-02 19:01:00,74.0,23.0,30.18,West,281,-999.0,0.0,15,-99.99,,,-99.99,0.000000,,2013-03-03 02:01:00,
2013-03-02 19:11:00,74.0,23.0,30.18,West,281,-999.0,0.0,15,-99.99,,,-99.99,0.000000,,2013-03-03 02:11:00,
2013-03-02 19:21:00,74.0,26.0,30.18,West,281,-999.0,0.0,17,-99.99,,,-99.99,0.000000,,2013-03-03 02:21:00,
2013-03-02 19:31:00,72.0,26.0,30.18,West,281,-999.0,0.0,18,-99.99,,,-99.99,0.000000,,2013-03-03 02:31:00,
2013-03-02 19:41:00,72.0,26.0,30.18,West,281,-999.0,0.0,18,-99.99,,,-99.99,0.000000,,2013-03-03 02:41:00,
2013-03-02 19:52:00,71.0,25.0,30.18,West,281,-999.0,0.0,18,-99.99,,,-99.99,0.000000,,2013-03-03 02:52:00,
2013-03-02 20:01:00,69.0,27.0,30.21,West,281,-999.0,0.0,21,-99.99,,,-99.99,0.000000,,2013-03-03 03:01:00,
2013-03-02 20:11:00,69.0,27.0,30.21,West,281,-999.0,0.0,21,-99.99,,,-99.99,0.000000,,2013-03-03 03:11:00,
2013-03-02 20:21:00,69.0,29.0,30.21,West,281,-999.0,0.0,22,-99.99,,,-99.99,0.000000,,2013-03-03 03:21:00,
2013-03-02 20:31:00,67.0,28.0,30.18,West,281,-999.0,0.0,23,-99.99,,,-99.99,0.000000,,2013-03-03 03:31:00,
2013-03-02 20:41:00,67.0,28.0,30.18,West,281,-999.0,0.0,23,-99.99,,,-99.99,0.000000,,2013-03-03 03:41:00,
2013-03-02 20:51:00,66.0,29.0,30.18,West,281,-999.0,0.0,25,-99.99,,,-99.99,0.000000,,2013-03-03 03:51:00,
2013-03-02 21:01:00,65.0,30.0,30.18,West,281,-999.0,0.0,27,-99.99,,,-99.99,0.000000,,2013-03-03 04:01:00,
2013-03-02 21:11:00,65.0,30.0,30.18,West,281,-999.0,0.0,27,-99.99,,,-99.99,0.000000,,2013-03-03 04:11:00,
2013-03-02 21:21:00,64.0,29.0,30.18,West,281,-999.0,0.0,27,-99.99,,,-99.99,0.000000,,2013-03-03 04:21:00,
2013-03-02 21:31:00,64.0,31.0,30.18,West,281,-999.0,0.0,29,-99.99,,,-99.99,0.000000,,2013-03-03 04:31:00,
2013-03-02 21:41:00,64.0,31.0,30.18,West,281,-999.0,0.0,29,-99.99,,,-99.99,0.000000,,2013-03-03 04:41:00,
2013-03-02 21:51:00,63.0,31.0,30.18,West,281,-999.0,0.0,30,-99.99,,,-99.99,0.000000,,2013-03-03 04:51:00,
2013-03-02 22:01:00,62.0,30.0,30.18,West,281,-999.0,0.0,30,-99.99,,,-99.99,0.000000,,2013-03-03 05:01:00,
2013-03-02 22:11:00,62.0,30.0,30.18,West,281,-999.0,0.0,30,-99.99,,,-99.99,0.000000,,2013-03-03 05:11:00,
2013-03-02 22:22:00,62.0,31.0,30.18,West,281,-999.0,0.0,31,-99.99,,,-99.99,0.000000,,2013-03-03 05:22:00,
2013-03-02 22:32:00,62.0,32.0,30.18,West,281,-999.0,0.0,32,-99.99,,,-99.99,0.000000,,2013-03-03 05:32:00,
2013-03-02 22:42:00,62.0,32.0,30.18,West,281,-999.0,0.0,32,-99.99,,,-99.99,0.000000,,2013-03-03 05:42:00,
2013-03-02 22:52:00,62.0,32.0,30.18,West,281,-999.0,0.0,32,-99.99,,,-99.99,0.000000,,2013-03-03 05:52:00,
2013-03-02 23:01:00,61.0,31.0,30.18,West,281,-999.0,0.0,32,-99.99,,,-99.99,0.000000,,2013-03-03 06:01:00,
2013-03-02 23:11:00,61.0,31.0,30.18,West,281,-999.0,0.0,32,-99.99,,,-99.99,0.000000,,2013-03-03 06:11:00,
2013-03-02 23:21:00,60.0,31.0,30.18,West,281,-999.0,0.0,33,-99.99,,,-99.99,0.000000,,2013-03-03 06:21:00,
2013-03-02 23:31:00,60.0,32.0,30.18,West,281,-999.0,0.0,34,-99.99,,,-99.99,0.000000,,2013-03-03 06:31:00,
2013-03-02 23:42:00,60.0,32.0,30.18,West,281,-999.0,0.0,34,-99.99,,,-99.99,0.000000,,2013-03-03 06:42:00,
2013-03-02 23:52:00,60.0,32.0,30.18,West,281,-999.0,0.0,34,-99.99,,,-99.99,0.000000,,2013-03-03 06:52:00,